Terminal Aerodrome Forecast
Issued by NWS

Home | Current Version | Previous Version | Text Only | Print | Product List | Glossary Off
Versions: 1 2 3 4 5 6 7 8 9 10 11 12 13 14 15 16 17 18 19 20 21 22 23 24 25

000
FTUS41 KCLE 212140 AAA
TAFFDY
TAF AMD
KFDY 212140Z 2122/2218 01010KT P6SM OVC012
     FM220300 04008KT P6SM VCSH OVC015
     FM220600 06008KT 2SM -SN SCT008 OVC012
      TEMPO 2207/2211 3SM -FZRAPL BKN008
     FM221100 06012KT 4SM -FZRAPL BKN008 OVC012
     FM221500 06012KT 5SM HZ OVC008=

USA.gov is the U.S. government's official web portal to all federal, state and local government web resources and services.